Quadrille — MFCM9 — position and weather

sailwx.info

Track history (hours):
 
Tides and Currents Weather Stations Pressure Air Temp Water Temp Dewpoint Dewpoint Depression Visibility Wind Speed Wind Dir Waves Ship Positions

Quadrille

Last reported at 2018-Jun-13 02:17 UTC. Time now 2018-Jun-19 23:27 UTC.
Position N 39°07' W 028°27'.

Length 9 m.

Type: Sailing vessel. MMSI: 235030365.

Date/timePositionNaut miles runAvg speedWind from/ knotsBaromVisibWave heightAir tempDewpointWater temp
2018-Jun-13 02:17N 39°07' W 028°27'2 4.8
2018-Jun-13 01:54N 39°05' W 028°27'4 4.6
2018-Jun-13 00:59N 39°01' W 028°28'2 4.3
2018-Jun-13 00:29N 38°59' W 028°29'2 4.1
2018-Jun-13 00:00N 38°57' W 028°29'2 4.0
2018-Jun-12 23:23N 38°54' W 028°29'2 4.2
2018-Jun-12 22:49N 38°52' W 028°29'2 3.3
2018-Jun-12 22:17N 38°50' W 028°30'1 3.0
2018-Jun-12 22:00N 38°49' W 028°30'2 3.4
2018-Jun-12 21:30N 38°48' W 028°30'2 2.8
2018-Jun-12 20:57N 38°46' W 028°30'1 1.8
2018-Jun-12 20:30N 38°45' W 028°30'1 1.9
2018-Jun-12 20:00N 38°44' W 028°30'1 2.1
2018-Jun-12 19:30N 38°43' W 028°30'1 3.0
2018-Jun-12 19:00N 38°42' W 028°31'2 3.5
2018-Jun-12 18:30N 38°41' W 028°32'2 3.6
2018-Jun-12 18:00N 38°39' W 028°33'2 3.6
2018-Jun-12 17:30N 38°37' W 028°34'2 4.0
2018-Jun-12 17:00N 38°35' W 028°35'2 3.9
2018-Jun-12 16:30N 38°33' W 028°35'1 2.2
2018-Jun-12 16:00N 38°32' W 028°36'1 2.7
2018-Jun-12 15:30N 38°32' W 028°38'  
2018-Jun-05 19:27N 38°32' W 028°38'0 0.0
2018-Jun-05 19:00N 38°32' W 028°38'0 0.2
2018-Jun-05 18:30N 38°32' W 028°37'0 0.1
2018-Jun-05 18:00N 38°32' W 028°37'1 2.9
2018-Jun-05 17:31N 38°31' W 028°37'3 6.5
2018-Jun-05 17:00N 38°30' W 028°41'3 5.4
2018-Jun-05 16:30N 38°30' W 028°44'3 5.4
2018-Jun-05 16:01N 38°30' W 028°48'3 5.5
2018-Jun-05 15:29N 38°30' W 028°52'3 5.3
2018-Jun-05 15:00N 38°31' W 028°55'3 5.8
2018-Jun-05 14:30N 38°31' W 028°58'3 6.0
2018-Jun-05 13:59N 38°30' W 029°02'3 5.9
2018-Jun-05 13:28N 38°30' W 029°06'3 6.0
2018-Jun-05 13:01N 38°30' W 029°10'3 6.0
2018-Jun-05 12:30N 38°30' W 029°14'2 4.9
2018-Jun-05 12:00N 38°30' W 029°17'3 6.4
2018-Jun-05 11:30N 38°29' W 029°21'3 6.3
2018-Jun-05 11:00N 38°29' W 029°25'3 6.2
2018-Jun-05 10:30N 38°30' W 029°29'5 5.8
2018-Jun-05 09:44N 38°30' W 029°35'1 5.9
2018-Jun-05 09:29N 38°30' W 029°36'3 5.9
2018-Jun-05 09:00N 38°30' W 029°40'4 6.2
2018-Jun-05 08:23N 38°30' W 029°45'  
Track history (hours):
 
Tides and Currents Weather Stations Pressure Air Temp Water Temp Dewpoint Dewpoint Depression Visibility Wind Speed Wind Dir Waves Ship Positions

Quadrille

Last reported at 2018-Jun-13 02:17 UTC. Time now 2018-Jun-19 23:27 UTC.
Position N 39°07' W 028°27'.

Length 9 m.

Type: Sailing vessel. MMSI: 235030365.

Date/timePositionNaut miles runAvg speedWind from/ knotsBaromVisibWave heightAir tempDewpointWater temp
2018-Jun-13 02:17N 39°07' W 028°27'2 4.8
2018-Jun-13 01:54N 39°05' W 028°27'4 4.6
2018-Jun-13 00:59N 39°01' W 028°28'2 4.3
2018-Jun-13 00:29N 38°59' W 028°29'2 4.1
2018-Jun-13 00:00N 38°57' W 028°29'2 4.0
2018-Jun-12 23:23N 38°54' W 028°29'2 4.2
2018-Jun-12 22:49N 38°52' W 028°29'2 3.3
2018-Jun-12 22:17N 38°50' W 028°30'1 3.0
2018-Jun-12 22:00N 38°49' W 028°30'2 3.4
2018-Jun-12 21:30N 38°48' W 028°30'2 2.8
2018-Jun-12 20:57N 38°46' W 028°30'1 1.8
2018-Jun-12 20:30N 38°45' W 028°30'1 1.9
2018-Jun-12 20:00N 38°44' W 028°30'1 2.1
2018-Jun-12 19:30N 38°43' W 028°30'1 3.0
2018-Jun-12 19:00N 38°42' W 028°31'2 3.5
2018-Jun-12 18:30N 38°41' W 028°32'2 3.6
2018-Jun-12 18:00N 38°39' W 028°33'2 3.6
2018-Jun-12 17:30N 38°37' W 028°34'2 4.0
2018-Jun-12 17:00N 38°35' W 028°35'2 3.9
2018-Jun-12 16:30N 38°33' W 028°35'1 2.2
2018-Jun-12 16:00N 38°32' W 028°36'1 2.7
2018-Jun-12 15:30N 38°32' W 028°38'  
2018-Jun-05 19:27N 38°32' W 028°38'0 0.0
2018-Jun-05 19:00N 38°32' W 028°38'0 0.2
2018-Jun-05 18:30N 38°32' W 028°37'0 0.1
2018-Jun-05 18:00N 38°32' W 028°37'1 2.9
2018-Jun-05 17:31N 38°31' W 028°37'3 6.5
2018-Jun-05 17:00N 38°30' W 028°41'3 5.4
2018-Jun-05 16:30N 38°30' W 028°44'3 5.4
2018-Jun-05 16:01N 38°30' W 028°48'3 5.5
2018-Jun-05 15:29N 38°30' W 028°52'3 5.3
2018-Jun-05 15:00N 38°31' W 028°55'3 5.8
2018-Jun-05 14:30N 38°31' W 028°58'3 6.0
2018-Jun-05 13:59N 38°30' W 029°02'3 5.9
2018-Jun-05 13:28N 38°30' W 029°06'3 6.0
2018-Jun-05 13:01N 38°30' W 029°10'3 6.0
2018-Jun-05 12:30N 38°30' W 029°14'2 4.9
2018-Jun-05 12:00N 38°30' W 029°17'3 6.4
2018-Jun-05 11:30N 38°29' W 029°21'3 6.3
2018-Jun-05 11:00N 38°29' W 029°25'3 6.2
2018-Jun-05 10:30N 38°30' W 029°29'5 5.8
2018-Jun-05 09:44N 38°30' W 029°35'1 5.9
2018-Jun-05 09:29N 38°30' W 029°36'3 5.9
2018-Jun-05 09:00N 38°30' W 029°40'4 6.2
2018-Jun-05 08:23N 38°30' W 029°45'  

Dump ship's entire track history